sensor_id;sensor_type;location;lat;lon;timestamp;temperature;humidity
11087;DHT22;5597;47.588;9.642;2023-05-07T00:00:37;15.30;99.90
11087;DHT22;5597;47.588;9.642;2023-05-07T00:03:03;15.20;99.90
11087;DHT22;5597;47.588;9.642;2023-05-07T00:05:29;15.20;99.90
11087;DHT22;5597;47.588;9.642;2023-05-07T00:07:55;15.20;99.90
11087;DHT22;5597;47.588;9.642;2023-05-07T00:10:20;15.20;99.90
11087;DHT22;5597;47.588;9.642;2023-05-07T00:12:46;15.20;99.90
11087;DHT22;5597;47.588;9.642;2023-05-07T00:15:11;15.20;99.90
11087;DHT22;5597;47.588;9.642;2023-05-07T00:17:48;15.20;99.90
11087;DHT22;5597;47.588;9.642;2023-05-07T00:20:20;15.10;99.90
11087;DHT22;5597;47.588;9.642;2023-05-07T00:23:06;15.10;99.90
11087;DHT22;5597;47.588;9.642;2023-05-07T00:25:31;15.10;99.90
11087;DHT22;5597;47.588;9.642;2023-05-07T00:27:57;15.10;99.90
11087;DHT22;5597;47.588;9.642;2023-05-07T00:30:27;15.10;99.90
11087;DHT22;5597;47.588;9.642;2023-05-07T00:32:53;15.10;99.90
11087;DHT22;5597;47.588;9.642;2023-05-07T00:35:19;15.10;99.90
11087;DHT22;5597;47.588;9.642;2023-05-07T00:37:45;15.10;99.90
11087;DHT22;5597;47.588;9.642;2023-05-07T00:40:10;15.10;99.90
11087;DHT22;5597;47.588;9.642;2023-05-07T00:42:36;15.10;99.90
11087;DHT22;5597;47.588;9.642;2023-05-07T00:45:02;15.10;99.90
11087;DHT22;5597;47.588;9.642;2023-05-07T00:47:28;15.10;99.90
11087;DHT22;5597;47.588;9.642;2023-05-07T00:49:54;15.10;99.90
11087;DHT22;5597;47.588;9.642;2023-05-07T00:52:20;15.10;99.90
11087;DHT22;5597;47.588;9.642;2023-05-07T00:54:47;15.10;99.90
11087;DHT22;5597;47.588;9.642;2023-05-07T00:57:13;15.10;99.90
11087;DHT22;5597;47.588;9.642;2023-05-07T00:59:39;15.10;99.90
11087;DHT22;5597;47.588;9.642;2023-05-07T01:02:06;15.10;99.90
11087;DHT22;5597;47.588;9.642;2023-05-07T01:04:32;15.10;99.90
11087;DHT22;5597;47.588;9.642;2023-05-07T01:06:58;15.10;99.90
11087;DHT22;5597;47.588;9.642;2023-05-07T01:09:24;15.10;99.90
11087;DHT22;5597;47.588;9.642;2023-05-07T01:11:50;15.10;99.90
11087;DHT22;5597;47.588;9.642;2023-05-07T01:14:17;15.10;99.90
11087;DHT22;5597;47.588;9.642;2023-05-07T01:16:43;15.00;99.90
11087;DHT22;5597;47.588;9.642;2023-05-07T01:19:11;15.00;99.90
11087;DHT22;5597;47.588;9.642;2023-05-07T01:21:43;15.00;99.90
11087;DHT22;5597;47.588;9.642;2023-05-07T01:24:10;15.00;99.90
11087;DHT22;5597;47.588;9.642;2023-05-07T01:26:37;15.00;99.90
11087;DHT22;5597;47.588;9.642;2023-05-07T01:29:03;15.00;99.90
11087;DHT22;5597;47.588;9.642;2023-05-07T01:31:29;15.00;99.90
11087;DHT22;5597;47.588;9.642;2023-05-07T01:33:56;15.00;99.90
11087;DHT22;5597;47.588;9.642;2023-05-07T01:36:24;15.00;99.90
11087;DHT22;5597;47.588;9.642;2023-05-07T01:38:51;14.90;99.90
11087;DHT22;5597;47.588;9.642;2023-05-07T01:41:19;15.00;99.90
11087;DHT22;5597;47.588;9.642;2023-05-07T01:43:45;15.00;99.90
11087;DHT22;5597;47.588;9.642;2023-05-07T01:46:11;15.00;99.90
11087;DHT22;5597;47.588;9.642;2023-05-07T01:48:37;15.00;99.90
11087;DHT22;5597;47.588;9.642;2023-05-07T01:51:04;15.00;99.90
11087;DHT22;5597;47.588;9.642;2023-05-07T01:53:36;15.00;99.90
11087;DHT22;5597;47.588;9.642;2023-05-07T01:56:02;15.00;99.90
11087;DHT22;5597;47.588;9.642;2023-05-07T01:58:27;14.90;99.90
11087;DHT22;5597;47.588;9.642;2023-05-07T02:00:53;14.90;99.90
11087;DHT22;5597;47.588;9.642;2023-05-07T02:03:18;14.90;99.90
11087;DHT22;5597;47.588;9.642;2023-05-07T02:05:44;14.90;99.90
11087;DHT22;5597;47.588;9.642;2023-05-07T02:08:09;14.90;99.90
11087;DHT22;5597;47.588;9.642;2023-05-07T02:10:35;14.80;99.90
11087;DHT22;5597;47.588;9.642;2023-05-07T02:13:01;14.80;99.90
11087;DHT22;5597;47.588;9.642;2023-05-07T02:15:27;14.80;99.90
11087;DHT22;5597;47.588;9.642;2023-05-07T02:18:04;14.70;99.90
11087;DHT22;5597;47.588;9.642;2023-05-07T02:20:30;14.70;99.90
11087;DHT22;5597;47.588;9.642;2023-05-07T02:22:56;14.70;99.90
11087;DHT22;5597;47.588;9.642;2023-05-07T02:25:21;14.60;99.90
11087;DHT22;5597;47.588;9.642;2023-05-07T02:27:47;14.60;99.90
11087;DHT22;5597;47.588;9.642;2023-05-07T02:30:13;14.60;99.90
11087;DHT22;5597;47.588;9.642;2023-05-07T02:32:39;14.60;99.90
11087;DHT22;5597;47.588;9.642;2023-05-07T02:35:05;14.60;99.90
11087;DHT22;5597;47.588;9.642;2023-05-07T02:37:30;14.60;99.90
11087;DHT22;5597;47.588;9.642;2023-05-07T02:39:56;14.60;99.90
11087;DHT22;5597;47.588;9.642;2023-05-07T02:42:22;14.60;99.90
11087;DHT22;5597;47.588;9.642;2023-05-07T02:44:47;14.60;99.90
11087;DHT22;5597;47.588;9.642;2023-05-07T02:47:14;14.60;99.90
11087;DHT22;5597;47.588;9.642;2023-05-07T02:49:40;14.50;99.90
11087;DHT22;5597;47.588;9.642;2023-05-07T02:52:06;14.50;99.90
11087;DHT22;5597;47.588;9.642;2023-05-07T02:54:31;14.50;99.90
11087;DHT22;5597;47.588;9.642;2023-05-07T02:56:57;14.40;99.90
11087;DHT22;5597;47.588;9.642;2023-05-07T02:59:23;14.40;99.90
11087;DHT22;5597;47.588;9.642;2023-05-07T03:01:49;14.40;99.90
11087;DHT22;5597;47.588;9.642;2023-05-07T03:04:15;14.40;99.90
11087;DHT22;5597;47.588;9.642;2023-05-07T03:06:41;14.30;99.90
11087;DHT22;5597;47.588;9.642;2023-05-07T03:09:06;14.30;99.90
11087;DHT22;5597;47.588;9.642;2023-05-07T03:11:32;14.30;99.90
11087;DHT22;5597;47.588;9.642;2023-05-07T03:13:58;14.20;99.90
11087;DHT22;5597;47.588;9.642;2023-05-07T03:16:23;14.10;99.90
11087;DHT22;5597;47.588;9.642;2023-05-07T03:18:49;14.10;99.90
11087;DHT22;5597;47.588;9.642;2023-05-07T03:21:14;14.10;99.90
11087;DHT22;5597;47.588;9.642;2023-05-07T03:23:40;14.00;99.90
11087;DHT22;5597;47.588;9.642;2023-05-07T03:26:05;14.00;99.90
11087;DHT22;5597;47.588;9.642;2023-05-07T03:28:31;14.00;99.90
11087;DHT22;5597;47.588;9.642;2023-05-07T03:30:56;13.90;99.90
11087;DHT22;5597;47.588;9.642;2023-05-07T03:33:22;13.90;99.90
11087;DHT22;5597;47.588;9.642;2023-05-07T03:35:47;13.90;99.90
11087;DHT22;5597;47.588;9.642;2023-05-07T03:38:14;13.90;99.90
11087;DHT22;5597;47.588;9.642;2023-05-07T03:40:39;13.80;99.90
11087;DHT22;5597;47.588;9.642;2023-05-07T03:43:05;13.80;99.90
11087;DHT22;5597;47.588;9.642;2023-05-07T03:45:31;13.70;99.90
11087;DHT22;5597;47.588;9.642;2023-05-07T03:47:56;13.70;99.90
11087;DHT22;5597;47.588;9.642;2023-05-07T03:50:22;13.70;99.90
11087;DHT22;5597;47.588;9.642;2023-05-07T03:52:47;13.60;99.90
11087;DHT22;5597;47.588;9.642;2023-05-07T03:55:13;13.60;99.90
11087;DHT22;5597;47.588;9.642;2023-05-07T03:57:38;13.50;99.90
11087;DHT22;5597;47.588;9.642;2023-05-07T04:00:07;13.50;99.90
11087;DHT22;5597;47.588;9.642;2023-05-07T04:02:33;13.50;99.90
11087;DHT22;5597;47.588;9.642;2023-05-07T04:04:59;13.40;99.90
11087;DHT22;5597;47.588;9.642;2023-05-07T04:07:24;13.40;99.90
11087;DHT22;5597;47.588;9.642;2023-05-07T04:09:50;13.40;99.90
11087;DHT22;5597;47.588;9.642;2023-05-07T04:12:16;13.40;99.90
11087;DHT22;5597;47.588;9.642;2023-05-07T04:14:41;13.40;99.90
11087;DHT22;5597;47.588;9.642;2023-05-07T04:17:07;13.40;99.90
11087;DHT22;5597;47.588;9.642;2023-05-07T04:19:35;13.40;99.90
11087;DHT22;5597;47.588;9.642;2023-05-07T04:22:00;13.40;99.90
11087;DHT22;5597;47.588;9.642;2023-05-07T04:24:26;13.40;99.90
11087;DHT22;5597;47.588;9.642;2023-05-07T04:26:51;13.40;99.90
11087;DHT22;5597;47.588;9.642;2023-05-07T04:29:18;13.50;99.90
11087;DHT22;5597;47.588;9.642;2023-05-07T04:31:44;13.40;99.90
11087;DHT22;5597;47.588;9.642;2023-05-07T04:34:10;13.40;99.90
11087;DHT22;5597;47.588;9.642;2023-05-07T04:36:37;13.40;99.90
11087;DHT22;5597;47.588;9.642;2023-05-07T04:39:03;13.40;99.90
11087;DHT22;5597;47.588;9.642;2023-05-07T04:41:29;13.40;99.90
11087;DHT22;5597;47.588;9.642;2023-05-07T04:43:54;13.40;99.90
11087;DHT22;5597;47.588;9.642;2023-05-07T04:46:20;13.40;99.90
11087;DHT22;5597;47.588;9.642;2023-05-07T04:48:46;13.40;99.90
11087;DHT22;5597;47.588;9.642;2023-05-07T04:51:11;13.50;99.90
11087;DHT22;5597;47.588;9.642;2023-05-07T04:53:37;13.50;99.90
11087;DHT22;5597;47.588;9.642;2023-05-07T04:56:03;13.60;99.90
11087;DHT22;5597;47.588;9.642;2023-05-07T04:58:28;13.60;99.90
11087;DHT22;5597;47.588;9.642;2023-05-07T05:00:57;13.70;99.90
11087;DHT22;5597;47.588;9.642;2023-05-07T05:03:23;13.80;99.90
11087;DHT22;5597;47.588;9.642;2023-05-07T05:05:52;13.90;99.90
11087;DHT22;5597;47.588;9.642;2023-05-07T05:08:18;13.90;99.90
11087;DHT22;5597;47.588;9.642;2023-05-07T05:10:44;14.00;99.90
11087;DHT22;5597;47.588;9.642;2023-05-07T05:13:10;14.10;99.90
11087;DHT22;5597;47.588;9.642;2023-05-07T05:15:38;14.20;99.90
11087;DHT22;5597;47.588;9.642;2023-05-07T05:18:04;14.30;99.90
11087;DHT22;5597;47.588;9.642;2023-05-07T05:20:29;14.40;99.90
11087;DHT22;5597;47.588;9.642;2023-05-07T05:22:55;14.40;99.90
11087;DHT22;5597;47.588;9.642;2023-05-07T05:25:21;14.50;99.90
11087;DHT22;5597;47.588;9.642;2023-05-07T05:27:46;14.60;99.90
11087;DHT22;5597;47.588;9.642;2023-05-07T05:30:12;14.80;99.90
11087;DHT22;5597;47.588;9.642;2023-05-07T05:32:38;14.90;99.90
11087;DHT22;5597;47.588;9.642;2023-05-07T05:35:04;14.90;99.90
11087;DHT22;5597;47.588;9.642;2023-05-07T05:37:29;15.00;99.90
11087;DHT22;5597;47.588;9.642;2023-05-07T05:39:56;15.10;99.90
11087;DHT22;5597;47.588;9.642;2023-05-07T05:42:22;15.20;99.90
11087;DHT22;5597;47.588;9.642;2023-05-07T05:44:48;15.20;99.90
11087;DHT22;5597;47.588;9.642;2023-05-07T05:47:13;15.30;99.90
11087;DHT22;5597;47.588;9.642;2023-05-07T05:49:39;15.40;99.90
11087;DHT22;5597;47.588;9.642;2023-05-07T05:52:05;15.50;99.90
11087;DHT22;5597;47.588;9.642;2023-05-07T05:54:30;15.60;99.90
11087;DHT22;5597;47.588;9.642;2023-05-07T05:56:56;15.60;99.90
11087;DHT22;5597;47.588;9.642;2023-05-07T05:59:22;15.70;99.90
11087;DHT22;5597;47.588;9.642;2023-05-07T06:01:48;15.70;99.90
11087;DHT22;5597;47.588;9.642;2023-05-07T06:04:13;15.70;99.90
11087;DHT22;5597;47.588;9.642;2023-05-07T06:06:39;15.80;99.90
11087;DHT22;5597;47.588;9.642;2023-05-07T06:09:04;15.90;99.90
11087;DHT22;5597;47.588;9.642;2023-05-07T06:11:31;15.90;99.90
11087;DHT22;5597;47.588;9.642;2023-05-07T06:13:57;16.00;99.90
11087;DHT22;5597;47.588;9.642;2023-05-07T06:16:24;16.00;99.90
11087;DHT22;5597;47.588;9.642;2023-05-07T06:18:50;16.10;99.90
11087;DHT22;5597;47.588;9.642;2023-05-07T06:21:16;16.20;99.90
11087;DHT22;5597;47.588;9.642;2023-05-07T06:23:41;16.30;99.90
11087;DHT22;5597;47.588;9.642;2023-05-07T06:26:07;16.40;99.90
11087;DHT22;5597;47.588;9.642;2023-05-07T06:28:32;16.50;99.90
11087;DHT22;5597;47.588;9.642;2023-05-07T06:31:18;16.50;99.90
11087;DHT22;5597;47.588;9.642;2023-05-07T06:33:46;16.60;99.90
11087;DHT22;5597;47.588;9.642;2023-05-07T06:36:12;16.70;99.90
11087;DHT22;5597;47.588;9.642;2023-05-07T06:38:37;16.70;99.90
11087;DHT22;5597;47.588;9.642;2023-05-07T06:41:03;16.80;99.90
11087;DHT22;5597;47.588;9.642;2023-05-07T06:43:28;17.00;99.90
11087;DHT22;5597;47.588;9.642;2023-05-07T06:45:54;17.10;99.90
11087;DHT22;5597;47.588;9.642;2023-05-07T06:48:20;17.20;99.90
11087;DHT22;5597;47.588;9.642;2023-05-07T06:50:45;17.30;99.90
11087;DHT22;5597;47.588;9.642;2023-05-07T06:53:11;17.40;99.90
11087;DHT22;5597;47.588;9.642;2023-05-07T06:55:37;17.60;99.90
11087;DHT22;5597;47.588;9.642;2023-05-07T06:58:03;17.70;99.90
11087;DHT22;5597;47.588;9.642;2023-05-07T07:00:29;17.70;99.90
11087;DHT22;5597;47.588;9.642;2023-05-07T07:02:56;17.80;99.90
11087;DHT22;5597;47.588;9.642;2023-05-07T07:05:21;18.00;99.90
11087;DHT22;5597;47.588;9.642;2023-05-07T07:07:47;18.10;99.90
11087;DHT22;5597;47.588;9.642;2023-05-07T07:10:22;18.20;99.90
11087;DHT22;5597;47.588;9.642;2023-05-07T07:12:48;18.40;99.90
11087;DHT22;5597;47.588;9.642;2023-05-07T07:15:14;18.50;99.90
11087;DHT22;5597;47.588;9.642;2023-05-07T07:17:40;18.60;99.90
11087;DHT22;5597;47.588;9.642;2023-05-07T07:20:06;18.70;99.90
11087;DHT22;5597;47.588;9.642;2023-05-07T07:22:32;18.80;99.90
11087;DHT22;5597;47.588;9.642;2023-05-07T07:24:57;19.00;99.90
11087;DHT22;5597;47.588;9.642;2023-05-07T07:27:23;19.10;99.90
11087;DHT22;5597;47.588;9.642;2023-05-07T07:29:48;19.20;99.90
11087;DHT22;5597;47.588;9.642;2023-05-07T07:32:14;19.30;99.90
11087;DHT22;5597;47.588;9.642;2023-05-07T07:34:40;19.30;99.90
11087;DHT22;5597;47.588;9.642;2023-05-07T07:37:05;19.30;99.90
11087;DHT22;5597;47.588;9.642;2023-05-07T07:39:32;19.30;99.90
11087;DHT22;5597;47.588;9.642;2023-05-07T07:41:58;19.30;99.90
11087;DHT22;5597;47.588;9.642;2023-05-07T07:44:24;19.30;99.90
11087;DHT22;5597;47.588;9.642;2023-05-07T07:46:50;19.50;99.90
11087;DHT22;5597;47.588;9.642;2023-05-07T07:49:16;19.70;99.90
11087;DHT22;5597;47.588;9.642;2023-05-07T07:51:42;19.90;99.90
11087;DHT22;5597;47.588;9.642;2023-05-07T07:54:07;20.10;99.90
11087;DHT22;5597;47.588;9.642;2023-05-07T07:56:33;20.20;99.90
11087;DHT22;5597;47.588;9.642;2023-05-07T07:59:01;20.30;99.90
11087;DHT22;5597;47.588;9.642;2023-05-07T08:01:29;20.40;99.90
11087;DHT22;5597;47.588;9.642;2023-05-07T08:03:55;20.50;99.90
11087;DHT22;5597;47.588;9.642;2023-05-07T08:06:21;20.70;99.90
11087;DHT22;5597;47.588;9.642;2023-05-07T08:08:46;20.70;99.90
11087;DHT22;5597;47.588;9.642;2023-05-07T08:11:12;20.80;99.90
11087;DHT22;5597;47.588;9.642;2023-05-07T08:13:38;20.80;99.90
11087;DHT22;5597;47.588;9.642;2023-05-07T08:16:04;20.80;99.90
11087;DHT22;5597;47.588;9.642;2023-05-07T08:18:30;20.80;99.90
11087;DHT22;5597;47.588;9.642;2023-05-07T08:20:55;20.80;99.90
11087;DHT22;5597;47.588;9.642;2023-05-07T08:23:22;20.80;99.90
11087;DHT22;5597;47.588;9.642;2023-05-07T08:25:48;20.80;99.90
11087;DHT22;5597;47.588;9.642;2023-05-07T08:28:14;20.70;99.90
11087;DHT22;5597;47.588;9.642;2023-05-07T08:30:40;20.80;99.90
11087;DHT22;5597;47.588;9.642;2023-05-07T08:33:08;20.90;99.90
11087;DHT22;5597;47.588;9.642;2023-05-07T08:35:33;21.00;99.90
11087;DHT22;5597;47.588;9.642;2023-05-07T08:37:59;21.00;99.90
11087;DHT22;5597;47.588;9.642;2023-05-07T08:40:26;21.10;99.90
11087;DHT22;5597;47.588;9.642;2023-05-07T08:42:52;21.10;99.90
11087;DHT22;5597;47.588;9.642;2023-05-07T08:45:19;21.10;99.90
11087;DHT22;5597;47.588;9.642;2023-05-07T08:47:48;21.10;99.90
11087;DHT22;5597;47.588;9.642;2023-05-07T08:50:16;21.00;99.90
11087;DHT22;5597;47.588;9.642;2023-05-07T08:52:41;21.10;99.90
11087;DHT22;5597;47.588;9.642;2023-05-07T08:55:08;21.20;99.90
11087;DHT22;5597;47.588;9.642;2023-05-07T08:57:34;21.30;99.90
11087;DHT22;5597;47.588;9.642;2023-05-07T09:00:00;21.40;99.90
11087;DHT22;5597;47.588;9.642;2023-05-07T09:02:25;21.50;99.90
11087;DHT22;5597;47.588;9.642;2023-05-07T09:04:51;21.70;99.90
11087;DHT22;5597;47.588;9.642;2023-05-07T09:07:19;21.70;99.90
11087;DHT22;5597;47.588;9.642;2023-05-07T09:09:45;21.90;99.90
11087;DHT22;5597;47.588;9.642;2023-05-07T09:12:10;22.00;99.90
11087;DHT22;5597;47.588;9.642;2023-05-07T09:14:36;22.10;99.90
11087;DHT22;5597;47.588;9.642;2023-05-07T09:17:01;22.20;99.90
11087;DHT22;5597;47.588;9.642;2023-05-07T09:19:27;22.30;99.90
11087;DHT22;5597;47.588;9.642;2023-05-07T09:22:00;22.30;99.90
11087;DHT22;5597;47.588;9.642;2023-05-07T09:24:26;22.50;99.90
11087;DHT22;5597;47.588;9.642;2023-05-07T09:26:54;22.60;99.90
11087;DHT22;5597;47.588;9.642;2023-05-07T09:29:20;22.90;99.90
11087;DHT22;5597;47.588;9.642;2023-05-07T09:31:46;23.00;99.90
11087;DHT22;5597;47.588;9.642;2023-05-07T09:34:12;23.20;99.90
11087;DHT22;5597;47.588;9.642;2023-05-07T09:36:37;23.20;99.90
11087;DHT22;5597;47.588;9.642;2023-05-07T09:39:03;23.10;99.90
11087;DHT22;5597;47.588;9.642;2023-05-07T09:41:30;23.20;99.90
11087;DHT22;5597;47.588;9.642;2023-05-07T09:43:58;23.20;99.90
11087;DHT22;5597;47.588;9.642;2023-05-07T09:46:30;23.30;99.90
11087;DHT22;5597;47.588;9.642;2023-05-07T09:49:01;23.40;99.90
11087;DHT22;5597;47.588;9.642;2023-05-07T09:51:48;23.50;99.90
11087;DHT22;5597;47.588;9.642;2023-05-07T09:54:14;23.50;99.90
11087;DHT22;5597;47.588;9.642;2023-05-07T09:56:40;23.50;99.90
11087;DHT22;5597;47.588;9.642;2023-05-07T09:59:08;23.50;99.90
11087;DHT22;5597;47.588;9.642;2023-05-07T10:01:36;23.50;99.90
11087;DHT22;5597;47.588;9.642;2023-05-07T10:04:02;23.50;99.90
11087;DHT22;5597;47.588;9.642;2023-05-07T10:06:30;23.60;99.90
11087;DHT22;5597;47.588;9.642;2023-05-07T10:08:55;23.80;99.90
11087;DHT22;5597;47.588;9.642;2023-05-07T10:11:22;24.00;99.90
11087;DHT22;5597;47.588;9.642;2023-05-07T10:13:48;24.20;99.90
11087;DHT22;5597;47.588;9.642;2023-05-07T10:16:14;24.30;99.90
11087;DHT22;5597;47.588;9.642;2023-05-07T10:18:40;24.50;99.90
11087;DHT22;5597;47.588;9.642;2023-05-07T10:21:19;24.60;99.90
11087;DHT22;5597;47.588;9.642;2023-05-07T10:23:46;24.70;99.90
11087;DHT22;5597;47.588;9.642;2023-05-07T10:26:14;24.90;99.90
11087;DHT22;5597;47.588;9.642;2023-05-07T10:28:43;25.00;99.90
11087;DHT22;5597;47.588;9.642;2023-05-07T10:33:46;25.00;99.90
11087;DHT22;5597;47.588;9.642;2023-05-07T10:36:12;25.10;99.90
11087;DHT22;5597;47.588;9.642;2023-05-07T10:38:38;25.30;99.90
11087;DHT22;5597;47.588;9.642;2023-05-07T10:41:06;25.50;99.90
11087;DHT22;5597;47.588;9.642;2023-05-07T10:43:42;25.60;99.90
11087;DHT22;5597;47.588;9.642;2023-05-07T10:51:28;25.60;99.90
11087;DHT22;5597;47.588;9.642;2023-05-07T10:56:41;25.20;99.90
11087;DHT22;5597;47.588;9.642;2023-05-07T11:02:04;25.40;99.90
11087;DHT22;5597;47.588;9.642;2023-05-07T11:04:31;25.70;99.90
11087;DHT22;5597;47.588;9.642;2023-05-07T11:17:32;26.30;99.90
11087;DHT22;5597;47.588;9.642;2023-05-07T11:20:00;26.60;99.90
11087;DHT22;5597;47.588;9.642;2023-05-07T11:25:03;27.00;99.90
11087;DHT22;5597;47.588;9.642;2023-05-07T11:27:29;27.10;99.90
11087;DHT22;5597;47.588;9.642;2023-05-07T11:29:55;27.20;98.90
11087;DHT22;5597;47.588;9.642;2023-05-07T11:32:24;27.30;99.90
11087;DHT22;5597;47.588;9.642;2023-05-07T11:34:54;27.40;99.90
11087;DHT22;5597;47.588;9.642;2023-05-07T11:37:21;27.70;99.90
11087;DHT22;5597;47.588;9.642;2023-05-07T11:39:47;27.80;99.60
11087;DHT22;5597;47.588;9.642;2023-05-07T11:42:29;27.90;99.90
11087;DHT22;5597;47.588;9.642;2023-05-07T11:44:55;27.90;98.80
11087;DHT22;5597;47.588;9.642;2023-05-07T11:47:21;27.90;99.60
11087;DHT22;5597;47.588;9.642;2023-05-07T11:49:51;28.00;98.30
11087;DHT22;5597;47.588;9.642;2023-05-07T11:52:19;28.10;98.80
11087;DHT22;5597;47.588;9.642;2023-05-07T11:54:52;28.30;99.80
11087;DHT22;5597;47.588;9.642;2023-05-07T11:57:18;28.50;99.80
11087;DHT22;5597;47.588;9.642;2023-05-07T11:59:44;28.70;98.60
11087;DHT22;5597;47.588;9.642;2023-05-07T12:02:10;28.80;95.40
11087;DHT22;5597;47.588;9.642;2023-05-07T12:04:37;28.90;94.00
11087;DHT22;5597;47.588;9.642;2023-05-07T12:07:03;28.80;93.80
11087;DHT22;5597;47.588;9.642;2023-05-07T12:09:29;28.80;94.50
11087;DHT22;5597;47.588;9.642;2023-05-07T12:11:55;28.90;95.70
11087;DHT22;5597;47.588;9.642;2023-05-07T12:14:21;29.20;95.60
11087;DHT22;5597;47.588;9.642;2023-05-07T12:16:47;29.30;94.00
11087;DHT22;5597;47.588;9.642;2023-05-07T12:19:13;29.30;92.80
11087;DHT22;5597;47.588;9.642;2023-05-07T12:21:40;29.30;94.30
11087;DHT22;5597;47.588;9.642;2023-05-07T12:24:06;29.40;92.60
11087;DHT22;5597;47.588;9.642;2023-05-07T12:26:31;29.40;91.90
11087;DHT22;5597;47.588;9.642;2023-05-07T12:28:57;29.50;92.40
11087;DHT22;5597;47.588;9.642;2023-05-07T12:31:25;29.50;91.90
11087;DHT22;5597;47.588;9.642;2023-05-07T12:33:51;29.60;91.50
11087;DHT22;5597;47.588;9.642;2023-05-07T12:36:17;29.60;91.80
11087;DHT22;5597;47.588;9.642;2023-05-07T12:38:42;29.70;91.60
11087;DHT22;5597;47.588;9.642;2023-05-07T12:41:09;29.70;90.90
11087;DHT22;5597;47.588;9.642;2023-05-07T12:43:35;29.80;92.30
11087;DHT22;5597;47.588;9.642;2023-05-07T12:46:04;29.90;93.10
11087;DHT22;5597;47.588;9.642;2023-05-07T12:48:30;30.00;92.20
11087;DHT22;5597;47.588;9.642;2023-05-07T12:51:00;30.10;92.10
11087;DHT22;5597;47.588;9.642;2023-05-07T12:53:26;30.20;89.90
11087;DHT22;5597;47.588;9.642;2023-05-07T12:55:55;30.20;88.50
11087;DHT22;5597;47.588;9.642;2023-05-07T12:58:29;30.00;87.60
11087;DHT22;5597;47.588;9.642;2023-05-07T13:00:59;29.80;89.10
11087;DHT22;5597;47.588;9.642;2023-05-07T13:03:30;29.60;89.60
11087;DHT22;5597;47.588;9.642;2023-05-07T13:05:58;29.60;90.90
11087;DHT22;5597;47.588;9.642;2023-05-07T13:08:35;29.60;89.50
11087;DHT22;5597;47.588;9.642;2023-05-07T13:11:03;29.50;88.30
11087;DHT22;5597;47.588;9.642;2023-05-07T13:13:31;29.40;90.30
11087;DHT22;5597;47.588;9.642;2023-05-07T13:15:56;29.40;90.00
11087;DHT22;5597;47.588;9.642;2023-05-07T13:18:23;29.30;87.10
11087;DHT22;5597;47.588;9.642;2023-05-07T13:20:49;29.20;89.80
11087;DHT22;5597;47.588;9.642;2023-05-07T13:23:15;29.10;87.90
11087;DHT22;5597;47.588;9.642;2023-05-07T13:25:40;28.90;87.40
11087;DHT22;5597;47.588;9.642;2023-05-07T13:28:06;28.80;88.20
11087;DHT22;5597;47.588;9.642;2023-05-07T13:30:32;28.70;86.80
11087;DHT22;5597;47.588;9.642;2023-05-07T13:32:57;28.70;88.10
11087;DHT22;5597;47.588;9.642;2023-05-07T13:35:23;28.90;88.00
11087;DHT22;5597;47.588;9.642;2023-05-07T13:37:48;28.90;85.60
11087;DHT22;5597;47.588;9.642;2023-05-07T13:40:14;29.00;87.10
11087;DHT22;5597;47.588;9.642;2023-05-07T13:42:40;29.00;87.20
11087;DHT22;5597;47.588;9.642;2023-05-07T13:45:07;29.20;84.70
11087;DHT22;5597;47.588;9.642;2023-05-07T13:47:33;29.30;82.00
11087;DHT22;5597;47.588;9.642;2023-05-07T13:49:58;29.10;82.00
11087;DHT22;5597;47.588;9.642;2023-05-07T13:52:24;28.90;84.20
11087;DHT22;5597;47.588;9.642;2023-05-07T13:54:49;28.70;84.60
11087;DHT22;5597;47.588;9.642;2023-05-07T13:57:17;28.50;84.30
11087;DHT22;5597;47.588;9.642;2023-05-07T13:59:42;28.20;84.80
11087;DHT22;5597;47.588;9.642;2023-05-07T14:02:08;28.10;84.50
11087;DHT22;5597;47.588;9.642;2023-05-07T14:04:34;28.00;86.00
11087;DHT22;5597;47.588;9.642;2023-05-07T14:07:00;27.90;86.30
11087;DHT22;5597;47.588;9.642;2023-05-07T14:09:25;27.80;87.20
11087;DHT22;5597;47.588;9.642;2023-05-07T14:11:51;27.50;88.00
11087;DHT22;5597;47.588;9.642;2023-05-07T14:14:18;27.40;89.20
11087;DHT22;5597;47.588;9.642;2023-05-07T14:16:44;27.20;89.90
11087;DHT22;5597;47.588;9.642;2023-05-07T14:19:10;27.00;90.30
11087;DHT22;5597;47.588;9.642;2023-05-07T14:21:36;26.80;90.90
11087;DHT22;5597;47.588;9.642;2023-05-07T14:24:02;26.60;91.50
11087;DHT22;5597;47.588;9.642;2023-05-07T14:26:27;26.50;92.00
11087;DHT22;5597;47.588;9.642;2023-05-07T14:28:53;26.40;92.60
11087;DHT22;5597;47.588;9.642;2023-05-07T14:31:20;26.30;92.80
11087;DHT22;5597;47.588;9.642;2023-05-07T14:33:46;26.20;93.10
11087;DHT22;5597;47.588;9.642;2023-05-07T14:36:12;25.90;93.30
11087;DHT22;5597;47.588;9.642;2023-05-07T14:38:37;25.70;94.00
11087;DHT22;5597;47.588;9.642;2023-05-07T14:41:03;25.60;94.20
11087;DHT22;5597;47.588;9.642;2023-05-07T14:43:29;25.40;94.80
11087;DHT22;5597;47.588;9.642;2023-05-07T14:45:54;25.30;94.70
11087;DHT22;5597;47.588;9.642;2023-05-07T14:48:20;25.20;95.20
11087;DHT22;5597;47.588;9.642;2023-05-07T14:50:47;25.10;95.80
11087;DHT22;5597;47.588;9.642;2023-05-07T14:53:13;24.90;95.60
11087;DHT22;5597;47.588;9.642;2023-05-07T14:55:38;24.60;95.90
11087;DHT22;5597;47.588;9.642;2023-05-07T14:58:04;24.40;96.20
11087;DHT22;5597;47.588;9.642;2023-05-07T15:00:30;24.30;96.80
11087;DHT22;5597;47.588;9.642;2023-05-07T15:03:05;24.10;97.40
11087;DHT22;5597;47.588;9.642;2023-05-07T15:05:31;23.90;97.60
11087;DHT22;5597;47.588;9.642;2023-05-07T15:07:56;23.80;97.80
11087;DHT22;5597;47.588;9.642;2023-05-07T15:10:22;23.60;98.00
11087;DHT22;5597;47.588;9.642;2023-05-07T15:12:48;23.50;98.50
11087;DHT22;5597;47.588;9.642;2023-05-07T15:15:13;23.40;98.70
11087;DHT22;5597;47.588;9.642;2023-05-07T15:17:39;23.40;98.70
11087;DHT22;5597;47.588;9.642;2023-05-07T15:20:05;23.20;98.90
11087;DHT22;5597;47.588;9.642;2023-05-07T15:22:31;23.10;99.40
11087;DHT22;5597;47.588;9.642;2023-05-07T15:24:57;23.10;99.80
11087;DHT22;5597;47.588;9.642;2023-05-07T15:27:24;23.00;99.90
11087;DHT22;5597;47.588;9.642;2023-05-07T15:29:49;23.00;99.90
11087;DHT22;5597;47.588;9.642;2023-05-07T15:32:15;22.90;99.90
11087;DHT22;5597;47.588;9.642;2023-05-07T15:34:40;22.80;99.90
11087;DHT22;5597;47.588;9.642;2023-05-07T15:37:06;22.70;99.90
11087;DHT22;5597;47.588;9.642;2023-05-07T15:39:32;22.70;99.90
11087;DHT22;5597;47.588;9.642;2023-05-07T15:41:57;22.60;99.90
11087;DHT22;5597;47.588;9.642;2023-05-07T15:44:23;22.50;99.90
11087;DHT22;5597;47.588;9.642;2023-05-07T15:46:53;22.30;99.90
11087;DHT22;5597;47.588;9.642;2023-05-07T15:49:18;22.20;99.90
11087;DHT22;5597;47.588;9.642;2023-05-07T15:51:44;22.20;99.90
11087;DHT22;5597;47.588;9.642;2023-05-07T15:54:09;22.10;99.90
11087;DHT22;5597;47.588;9.642;2023-05-07T15:56:35;22.10;99.90
11087;DHT22;5597;47.588;9.642;2023-05-07T15:59:00;22.00;99.90
11087;DHT22;5597;47.588;9.642;2023-05-07T16:01:27;21.90;99.90
11087;DHT22;5597;47.588;9.642;2023-05-07T16:03:52;21.90;99.90
11087;DHT22;5597;47.588;9.642;2023-05-07T16:06:18;21.80;99.90